createdAt,value
2022-12-08T00:00:17.620Z,8.33
2022-12-08T00:01:23.454Z,8.82
2022-12-08T00:02:26.995Z,8.32
2022-12-08T00:03:30.604Z,9.56
2022-12-08T00:04:35.638Z,8.44
2022-12-08T00:05:57.133Z,7.95
2022-12-08T00:07:18.496Z,8.25
2022-12-08T00:08:40.203Z,9.01
2022-12-08T00:09:43.328Z,8.59
2022-12-08T00:10:49.746Z,8.80
2022-12-08T00:12:01.175Z,8.34
2022-12-08T00:13:04.471Z,8.08
2022-12-08T00:14:07.740Z,9.16
2022-12-08T00:15:10.915Z,9.89
2022-12-08T00:16:14.789Z,10.26
2022-12-08T00:17:18.029Z,8.88
2022-12-08T00:18:21.222Z,9.08
2022-12-08T00:19:24.619Z,9.85
2022-12-08T00:20:27.802Z,9.61
2022-12-08T00:21:30.859Z,8.23
2022-12-08T00:22:33.969Z,9.88
2022-12-08T00:23:37.035Z,9.86
2022-12-08T00:24:41.651Z,8.41
2022-12-08T00:25:44.783Z,9.35
2022-12-08T00:26:48.259Z,10.71
2022-12-08T00:27:51.947Z,9.74
2022-12-08T00:28:55.125Z,10.34
2022-12-08T00:29:58.365Z,10.38
2022-12-08T00:31:10.157Z,10.04
2022-12-08T00:32:13.366Z,8.97
2022-12-08T00:33:16.560Z,11.75
2022-12-08T00:34:20.231Z,9.17
2022-12-08T00:35:23.296Z,9.48
2022-12-08T00:36:26.918Z,10.06
2022-12-08T00:37:30.210Z,9.51
2022-12-08T00:38:33.690Z,9.76
2022-12-08T00:39:36.880Z,10.34
2022-12-08T00:40:45.744Z,9.97
2022-12-08T00:42:07.298Z,10.80
2022-12-08T00:43:10.689Z,9.23
2022-12-08T00:44:15.878Z,9.19
2022-12-08T00:45:19.527Z,9.91
2022-12-08T00:46:22.858Z,9.56
2022-12-08T00:47:26.050Z,9.56
2022-12-08T00:48:29.240Z,9.54
2022-12-08T00:49:32.399Z,9.58
2022-12-08T00:50:35.619Z,9.30
2022-12-08T00:51:38.955Z,9.43
2022-12-08T00:52:42.202Z,9.33
2022-12-08T00:53:45.340Z,9.09
2022-12-08T00:54:48.656Z,10.24
2022-12-08T00:55:51.966Z,9.17
2022-12-08T00:56:55.988Z,8.94
2022-12-08T00:57:59.187Z,9.13
2022-12-08T00:59:04.863Z,9.28
2022-12-08T01:00:08.884Z,10.61
2022-12-08T01:01:13.704Z,9.85
2022-12-08T01:02:16.933Z,9.78
2022-12-08T01:03:20.198Z,8.98
2022-12-08T01:04:23.351Z,8.83
2022-12-08T01:05:26.638Z,9.26
2022-12-08T01:06:29.830Z,9.09
2022-12-08T01:07:33.132Z,9.30
2022-12-08T01:08:37.549Z,8.44
2022-12-08T01:09:40.793Z,9.11
2022-12-08T01:10:44.194Z,9.01
2022-12-08T01:11:47.303Z,10.15
2022-12-08T01:12:50.628Z,9.83
2022-12-08T01:13:54.206Z,9.73
2022-12-08T01:15:02.091Z,9.46
2022-12-08T01:16:02.568Z,10.02
2022-12-08T01:17:05.976Z,10.22
2022-12-08T01:18:09.359Z,10.45
2022-12-08T01:19:15.095Z,10.03
2022-12-08T01:20:18.328Z,10.07
2022-12-08T01:21:21.504Z,9.81
2022-12-08T01:22:24.879Z,9.49
2022-12-08T01:23:28.179Z,10.55
2022-12-08T01:24:31.871Z,9.81
2022-12-08T01:25:35.146Z,9.76
2022-12-08T01:26:38.320Z,10.05
2022-12-08T01:27:41.437Z,9.53
2022-12-08T01:28:46.854Z,10.80
2022-12-08T01:29:49.954Z,9.81
2022-12-08T01:30:53.172Z,11.62
2022-12-08T01:31:56.458Z,10.14
2022-12-08T01:32:59.611Z,10.07
2022-12-08T01:34:02.678Z,10.38
2022-12-08T01:35:06.115Z,10.31
2022-12-08T01:36:12.074Z,10.34
2022-12-08T01:37:15.194Z,9.83
2022-12-08T01:38:18.592Z,10.29
2022-12-08T01:39:21.801Z,10.69
2022-12-08T01:40:24.975Z,11.82
2022-12-08T01:41:31.252Z,11.10
2022-12-08T01:42:34.461Z,10.34
2022-12-08T01:43:59.436Z,10.12
2022-12-08T01:45:05.645Z,9.51
2022-12-08T01:46:08.950Z,10.94
2022-12-08T01:47:12.245Z,11.21
2022-12-08T01:48:19.003Z,10.05
2022-12-08T01:49:28.535Z,10.57
2022-12-08T01:50:32.332Z,11.03
2022-12-08T01:51:57.014Z,10.46
2022-12-08T01:53:03.678Z,11.20
2022-12-08T01:54:07.663Z,10.88
2022-12-08T01:55:14.278Z,10.38
2022-12-08T01:56:39.271Z,10.58
2022-12-08T01:57:51.389Z,10.13
2022-12-08T01:58:56.176Z,11.07
2022-12-08T02:00:10.597Z,11.29
2022-12-08T02:01:14.172Z,10.78
2022-12-08T02:02:17.405Z,10.81
2022-12-08T02:03:24.129Z,11.22
2022-12-08T02:04:27.247Z,10.12
2022-12-08T02:05:33.869Z,11.58
2022-12-08T02:06:40.125Z,11.29
2022-12-08T02:07:44.066Z,11.51
2022-12-08T02:08:49.243Z,11.19
2022-12-08T02:09:53.786Z,11.92
2022-12-08T02:10:57.270Z,11.03
2022-12-08T02:12:00.762Z,11.09
2022-12-08T02:13:06.358Z,11.34
2022-12-08T02:14:12.961Z,11.94
2022-12-08T02:15:16.633Z,10.39
2022-12-08T02:16:42.857Z,10.82
2022-12-08T02:18:10.555Z,10.19
2022-12-08T02:21:10.692Z,11.24
2022-12-08T02:22:26.384Z,10.98
2022-12-08T02:23:54.007Z,10.68
2022-12-08T02:25:00.713Z,11.26
2022-12-08T02:26:07.360Z,11.58
2022-12-08T02:27:48.561Z,11.38
2022-12-08T02:29:07.151Z,10.54
2022-12-08T02:30:16.897Z,11.01
2022-12-08T02:31:23.682Z,10.72
2022-12-08T02:32:52.908Z,11.33
2022-12-08T02:34:02.518Z,10.77
2022-12-08T02:35:27.995Z,10.16
2022-12-08T02:36:40.829Z,11.81
2022-12-08T02:37:50.332Z,11.01
2022-12-08T02:39:18.017Z,10.97
2022-12-08T02:40:30.647Z,10.88
2022-12-08T02:41:40.409Z,10.11
2022-12-08T02:42:53.268Z,10.88
2022-12-08T02:44:06.197Z,10.32
2022-12-08T02:45:15.685Z,11.01
2022-12-08T02:46:31.088Z,11.20
2022-12-08T02:47:35.024Z,10.52
2022-12-08T02:48:38.931Z,10.69
2022-12-08T02:49:42.410Z,10.42
2022-12-08T02:50:45.702Z,10.93
2022-12-08T02:51:48.819Z,10.72
2022-12-08T02:52:52.273Z,10.55
2022-12-08T02:53:55.644Z,10.46
2022-12-08T02:55:05.428Z,9.62
2022-12-08T02:56:31.132Z,9.96
2022-12-08T02:57:55.891Z,10.03
2022-12-08T02:59:17.446Z,9.96
2022-12-08T03:00:23.019Z,10.48
2022-12-08T03:01:41.826Z,10.02
2022-12-08T03:03:03.794Z,11.07
2022-12-08T03:04:28.562Z,9.79
2022-12-08T03:05:59.360Z,9.88
2022-12-08T03:07:08.615Z,10.44
2022-12-08T03:08:24.272Z,9.83
2022-12-08T03:09:31.139Z,10.59
2022-12-08T03:10:43.707Z,9.44
2022-12-08T03:11:59.545Z,10.53
2022-12-08T03:13:06.403Z,9.19
2022-12-08T03:14:13.158Z,9.88
2022-12-08T03:15:20.036Z,10.15
2022-12-08T03:16:26.673Z,9.80
2022-12-08T03:17:31.775Z,10.75
2022-12-08T03:18:38.703Z,9.64
2022-12-08T03:19:43.690Z,9.84
2022-12-08T03:20:48.773Z,9.20
2022-12-08T03:21:56.572Z,9.53
2022-12-08T03:23:01.722Z,9.36
2022-12-08T03:24:07.726Z,9.19
2022-12-08T03:25:14.319Z,8.73
2022-12-08T03:26:21.229Z,9.43
2022-12-08T03:27:30.399Z,9.21
2022-12-08T03:28:33.730Z,9.26
2022-12-08T03:29:36.919Z,8.61
2022-12-08T03:30:42.633Z,9.09
2022-12-08T03:31:49.370Z,9.11
2022-12-08T03:33:01.951Z,9.36
2022-12-08T03:34:05.461Z,9.71
2022-12-08T03:35:15.187Z,8.59
2022-12-08T03:36:19.390Z,8.19
2022-12-08T03:37:22.593Z,8.22
2022-12-08T03:38:25.799Z,8.18
2022-12-08T03:39:28.978Z,7.74
2022-12-08T03:40:32.195Z,8.34
2022-12-08T03:41:35.303Z,8.83
2022-12-08T03:42:38.433Z,8.12
2022-12-08T03:43:41.558Z,8.08
2022-12-08T03:44:44.772Z,8.73
2022-12-08T03:45:48.066Z,8.06
2022-12-08T03:46:51.319Z,8.96
2022-12-08T03:47:54.547Z,10.57
2022-12-08T03:48:57.774Z,8.66
2022-12-08T03:50:01.134Z,9.19
2022-12-08T03:51:04.447Z,9.10
2022-12-08T03:52:07.668Z,9.05
2022-12-08T03:53:10.871Z,8.29
2022-12-08T03:54:14.011Z,7.69
2022-12-08T03:55:17.891Z,8.66
2022-12-08T03:56:30.393Z,8.81
2022-12-08T03:57:33.630Z,8.41
2022-12-08T03:58:37.694Z,8.19
2022-12-08T03:59:41.004Z,8.47
2022-12-08T04:00:44.466Z,8.49
2022-12-08T04:01:47.687Z,7.54
2022-12-08T04:02:50.855Z,9.24
2022-12-08T04:03:54.236Z,7.82
2022-12-08T04:04:57.381Z,7.26
2022-12-08T04:06:00.594Z,8.89
2022-12-08T04:07:03.845Z,7.66
2022-12-08T04:08:06.970Z,8.39
2022-12-08T04:09:10.226Z,8.58
2022-12-08T04:10:13.433Z,7.44
2022-12-08T04:11:17.544Z,7.54
2022-12-08T04:12:20.628Z,8.18
2022-12-08T04:13:23.865Z,7.95
2022-12-08T04:14:26.970Z,9.46
2022-12-08T04:15:30.205Z,8.37
2022-12-08T04:16:33.409Z,8.38
2022-12-08T04:17:36.681Z,8.43
2022-12-08T04:18:39.938Z,7.74
2022-12-08T04:19:43.053Z,7.95
2022-12-08T04:20:46.536Z,8.61
2022-12-08T04:21:49.613Z,8.66
2022-12-08T04:22:52.744Z,10.64
2022-12-08T04:24:00.880Z,8.31
2022-12-08T04:25:01.190Z,7.77
2022-12-08T04:26:04.836Z,7.80
2022-12-08T04:27:07.901Z,8.84
2022-12-08T04:28:11.004Z,7.46
2022-12-08T04:29:14.124Z,7.92
2022-12-08T04:30:17.329Z,7.78
2022-12-08T04:31:20.465Z,7.19
2022-12-08T04:32:23.579Z,8.91
2022-12-08T04:33:26.971Z,7.62
2022-12-08T04:34:30.072Z,7.65
2022-12-08T04:35:33.168Z,7.75
2022-12-08T04:36:36.244Z,7.98
2022-12-08T04:37:39.326Z,7.88
2022-12-08T04:38:42.416Z,7.30
2022-12-08T04:39:45.538Z,7.89
2022-12-08T04:40:48.853Z,8.35
2022-12-08T04:41:52.006Z,7.17
2022-12-08T04:42:55.403Z,9.17
2022-12-08T04:43:58.490Z,7.34
2022-12-08T04:45:01.612Z,8.21
2022-12-08T04:46:08.767Z,7.40
2022-12-08T04:47:12.074Z,7.21
2022-12-08T04:48:15.622Z,8.53
2022-12-08T04:49:18.839Z,7.31
2022-12-08T04:50:22.100Z,7.21
2022-12-08T04:51:26.761Z,8.13
2022-12-08T04:52:30.131Z,8.02
2022-12-08T04:53:33.938Z,8.29
2022-12-08T04:54:37.245Z,7.19
2022-12-08T04:55:43.341Z,8.09
2022-12-08T04:56:46.684Z,7.11
2022-12-08T04:57:50.092Z,7.31
2022-12-08T04:58:53.412Z,8.71
2022-12-08T04:59:56.903Z,7.58
2022-12-08T05:01:00.185Z,7.11
2022-12-08T05:02:03.558Z,7.16
2022-12-08T05:03:07.156Z,7.39
2022-12-08T05:04:10.279Z,7.05
2022-12-08T05:05:13.498Z,7.36
2022-12-08T05:06:17.113Z,7.44
2022-12-08T05:07:20.334Z,8.24
2022-12-08T05:08:23.678Z,7.14
2022-12-08T05:09:27.544Z,7.05
2022-12-08T05:15:16.686Z,7.21
2022-12-08T05:16:20.006Z,8.84
2022-12-08T05:17:23.263Z,7.10
2022-12-08T05:18:26.342Z,8.36
2022-12-08T05:19:29.541Z,7.74
2022-12-08T05:20:33.518Z,7.83
2022-12-08T05:21:36.662Z,9.13
2022-12-08T05:22:39.780Z,8.82
2022-12-08T05:23:42.851Z,8.24
2022-12-08T05:24:47.897Z,8.16
2022-12-08T05:25:51.031Z,7.53
2022-12-08T05:26:54.238Z,7.20
2022-12-08T05:28:17.684Z,8.21
2022-12-08T05:29:02.310Z,8.40
2022-12-08T05:30:06.763Z,8.51
2022-12-08T05:31:12.502Z,7.19
2022-12-08T05:32:16.458Z,8.80
2022-12-08T05:33:19.602Z,8.22
2022-12-08T05:34:22.775Z,7.80
2022-12-08T05:35:26.059Z,7.92
2022-12-08T05:36:29.311Z,7.46
2022-12-08T05:37:32.636Z,8.31
2022-12-08T05:38:36.042Z,7.69
2022-12-08T05:39:39.251Z,8.18
2022-12-08T05:40:42.967Z,8.26
2022-12-08T05:41:46.284Z,7.14
2022-12-08T05:42:49.559Z,8.08
2022-12-08T05:43:52.682Z,7.33
2022-12-08T05:44:55.839Z,8.60
2022-12-08T05:45:59.229Z,8.19
2022-12-08T05:47:02.513Z,8.20
2022-12-08T05:48:06.131Z,7.56
2022-12-08T05:49:09.365Z,7.42
2022-12-08T05:50:12.586Z,8.27
2022-12-08T05:51:21.720Z,7.89
2022-12-08T05:52:25.033Z,8.76
2022-12-08T05:53:28.329Z,7.92
2022-12-08T05:54:31.533Z,8.81
2022-12-08T05:55:34.765Z,8.33
2022-12-08T05:56:38.036Z,7.58
2022-12-08T05:57:41.241Z,7.46
2022-12-08T05:58:45.143Z,8.11
2022-12-08T05:59:48.299Z,8.48
2022-12-08T06:00:51.504Z,8.23
2022-12-08T06:01:54.712Z,7.47
2022-12-08T06:02:58.100Z,8.29
2022-12-08T06:04:02.908Z,8.59
2022-12-08T06:05:06.811Z,6.95
2022-12-08T06:06:10.559Z,7.71
2022-12-08T06:07:16.154Z,8.29
2022-12-08T06:08:18.820Z,9.26
2022-12-08T06:09:22.125Z,8.16
2022-12-08T06:10:25.478Z,8.22
2022-12-08T06:11:30.699Z,7.92
2022-12-08T06:12:34.075Z,7.97
2022-12-08T06:13:37.225Z,8.94
2022-12-08T06:14:40.449Z,8.31
2022-12-08T06:15:43.740Z,8.64
2022-12-08T06:16:47.205Z,7.83
2022-12-08T06:17:50.443Z,7.19
2022-12-08T06:18:54.227Z,8.54
2022-12-08T06:19:57.471Z,7.35
2022-12-08T06:21:08.813Z,7.04
2022-12-08T06:22:12.070Z,6.79
2022-12-08T06:23:15.212Z,7.69
2022-12-08T06:24:18.331Z,6.95
2022-12-08T06:25:22.535Z,7.29
2022-12-08T06:26:25.873Z,8.42
2022-12-08T06:27:28.952Z,7.94
2022-12-08T06:28:32.895Z,7.89
2022-12-08T06:29:35.973Z,8.26
2022-12-08T06:30:39.316Z,7.88
2022-12-08T06:31:42.496Z,7.46
2022-12-08T06:32:45.629Z,7.96
2022-12-08T06:33:49.565Z,8.58
2022-12-08T06:34:52.764Z,8.71
2022-12-08T06:35:58.138Z,10.95
2022-12-08T06:37:01.410Z,9.87
2022-12-08T06:38:04.614Z,10.60
2022-12-08T06:39:09.463Z,10.63
2022-12-08T06:40:13.751Z,10.39
2022-12-08T06:41:17.754Z,9.91
2022-12-08T06:42:39.331Z,9.91
2022-12-08T06:43:43.267Z,8.62
2022-12-08T06:44:46.891Z,8.82
2022-12-08T06:45:50.952Z,9.52
2022-12-08T06:46:54.142Z,8.06
2022-12-08T06:47:57.198Z,8.59
2022-12-08T06:49:00.399Z,8.13
2022-12-08T06:50:05.634Z,8.10
2022-12-08T06:51:15.279Z,7.85
2022-12-08T06:52:18.541Z,8.03
2022-12-08T06:53:21.732Z,8.34
2022-12-08T06:54:24.940Z,7.42
2022-12-08T06:55:57.943Z,8.41
2022-12-08T06:56:33.457Z,8.53
2022-12-08T06:57:36.799Z,8.75
2022-12-08T06:58:39.877Z,8.05
2022-12-08T06:59:43.161Z,7.45
2022-12-08T07:00:46.630Z,7.70
2022-12-08T07:01:49.941Z,7.90
2022-12-08T07:02:53.391Z,7.08
2022-12-08T07:03:56.606Z,7.98
2022-12-08T07:04:59.769Z,8.02
2022-12-08T07:06:04.355Z,7.96
2022-12-08T07:07:07.835Z,7.09
2022-12-08T07:08:11.027Z,7.38
2022-12-08T07:09:15.021Z,7.29
2022-12-08T07:10:18.598Z,7.61
2022-12-08T07:11:22.842Z,6.96
2022-12-08T07:12:26.209Z,8.02
2022-12-08T07:13:29.441Z,8.43
2022-12-08T07:14:32.699Z,8.26
2022-12-08T07:15:36.084Z,7.11
2022-12-08T07:16:39.704Z,7.94
2022-12-08T07:17:42.933Z,7.19
2022-12-08T07:18:46.291Z,7.41
2022-12-08T07:19:49.492Z,7.97
2022-12-08T07:20:52.942Z,7.08
2022-12-08T07:21:56.164Z,7.93
2022-12-08T07:22:59.470Z,8.11
2022-12-08T07:24:02.733Z,6.41
2022-12-08T07:25:06.677Z,7.56
2022-12-08T07:26:11.394Z,7.75
2022-12-08T07:27:14.746Z,7.79
2022-12-08T07:28:17.946Z,7.28
2022-12-08T07:29:26.038Z,7.07
2022-12-08T07:30:26.516Z,6.87
2022-12-08T07:31:29.852Z,7.64
2022-12-08T07:32:33.142Z,6.83
2022-12-08T07:33:36.437Z,7.13
2022-12-08T07:34:39.649Z,7.17
2022-12-08T07:35:47.765Z,7.22
2022-12-08T07:36:48.011Z,8.17
2022-12-08T07:37:51.252Z,7.41
2022-12-08T07:38:54.494Z,7.29
2022-12-08T07:39:57.779Z,6.80
2022-12-08T07:41:01.009Z,10.04
2022-12-08T07:42:04.237Z,7.54
2022-12-08T07:43:08.204Z,7.91
2022-12-08T07:44:11.464Z,8.09
2022-12-08T07:45:14.665Z,8.81
2022-12-08T07:46:20.595Z,7.80
2022-12-08T07:47:23.985Z,7.81
2022-12-08T07:48:27.570Z,8.40
2022-12-08T07:49:30.784Z,7.82
2022-12-08T07:50:34.260Z,7.37
2022-12-08T07:51:37.309Z,7.35
2022-12-08T07:52:40.455Z,8.48
2022-12-08T07:53:49.872Z,7.96
2022-12-08T07:54:50.236Z,9.97
2022-12-08T07:55:53.519Z,7.89
2022-12-08T07:57:00.418Z,8.31
2022-12-08T07:58:03.568Z,8.02
2022-12-08T07:59:06.689Z,7.12
2022-12-08T08:00:11.321Z,7.24
2022-12-08T08:01:23.628Z,7.67
2022-12-08T08:02:27.109Z,7.76
2022-12-08T08:03:31.001Z,8.28
2022-12-08T08:04:34.187Z,7.57
2022-12-08T08:05:37.551Z,7.27
2022-12-08T08:06:40.960Z,8.17
2022-12-08T08:07:45.938Z,7.56
2022-12-08T08:08:49.244Z,7.61
2022-12-08T08:09:52.329Z,7.57
2022-12-08T08:10:55.402Z,7.42
2022-12-08T08:12:28.984Z,8.83
2022-12-08T08:13:03.524Z,7.56
2022-12-08T08:14:06.858Z,7.67
2022-12-08T08:15:10.262Z,7.40
2022-12-08T08:16:14.575Z,7.39
2022-12-08T08:17:17.964Z,7.79
2022-12-08T08:18:21.215Z,7.05
2022-12-08T08:19:24.351Z,7.36
2022-12-08T08:20:27.623Z,6.91
2022-12-08T08:21:45.409Z,7.37
2022-12-08T08:22:36.430Z,7.12
2022-12-08T08:23:39.917Z,7.69
2022-12-08T08:24:45.059Z,8.09
2022-12-08T08:25:48.202Z,7.27
2022-12-08T08:26:52.980Z,7.53
2022-12-08T08:27:56.194Z,7.52
2022-12-08T08:28:59.301Z,8.04
2022-12-08T08:30:03.881Z,8.40
2022-12-08T08:31:07.570Z,6.47
2022-12-08T08:32:11.260Z,6.56
2022-12-08T08:33:14.463Z,7.11
2022-12-08T08:34:17.777Z,6.88
2022-12-08T08:35:21.027Z,8.26
2022-12-08T08:36:24.304Z,7.39
2022-12-08T08:37:27.939Z,7.77
2022-12-08T08:38:31.202Z,7.67
2022-12-08T08:39:34.513Z,8.04
2022-12-08T08:40:37.959Z,7.89
2022-12-08T08:41:41.253Z,8.64
2022-12-08T08:42:44.484Z,7.47
2022-12-08T08:43:47.686Z,8.43
2022-12-08T08:44:50.858Z,8.35
2022-12-08T08:45:56.685Z,8.33
2022-12-08T08:47:00.037Z,7.74
2022-12-08T08:48:03.475Z,8.00
2022-12-08T08:49:06.987Z,7.26
2022-12-08T08:50:10.289Z,7.91
2022-12-08T08:51:14.737Z,7.90
2022-12-08T08:52:17.992Z,8.32
2022-12-08T08:53:21.357Z,7.75
2022-12-08T08:54:24.627Z,7.13
2022-12-08T08:55:28.089Z,8.11
2022-12-08T08:56:31.592Z,8.50
2022-12-08T08:57:34.802Z,7.86
2022-12-08T08:58:38.000Z,8.47
2022-12-08T08:59:41.208Z,9.88
2022-12-08T09:00:44.772Z,12.07
2022-12-08T09:01:48.324Z,14.21
2022-12-08T09:02:51.639Z,15.93
2022-12-08T09:03:55.313Z,15.79
2022-12-08T09:04:59.220Z,14.20
2022-12-08T09:06:02.548Z,13.76
2022-12-08T09:07:05.820Z,12.49
2022-12-08T09:08:09.199Z,12.10
2022-12-08T09:09:12.554Z,13.46
2022-12-08T09:10:16.012Z,13.41
2022-12-08T09:11:19.324Z,11.84
2022-12-08T09:12:22.570Z,11.59
2022-12-08T09:13:25.762Z,11.09
2022-12-08T09:14:29.006Z,10.07
2022-12-08T09:15:32.227Z,10.41
2022-12-08T09:16:41.808Z,11.38
2022-12-08T09:17:40.555Z,8.79
2022-12-08T09:18:43.811Z,9.01
2022-12-08T09:19:47.099Z,8.71
2022-12-08T09:20:50.581Z,9.67
2022-12-08T09:21:54.328Z,9.93
2022-12-08T09:22:59.569Z,8.95
2022-12-08T09:24:02.983Z,9.74
2022-12-08T09:25:06.266Z,9.61
2022-12-08T09:26:10.286Z,10.01
2022-12-08T09:27:13.495Z,8.96
2022-12-08T09:28:16.773Z,10.20
2022-12-08T09:29:19.962Z,9.18
2022-12-08T09:30:23.494Z,9.63
2022-12-08T09:31:26.832Z,8.47
2022-12-08T09:32:30.030Z,9.00
2022-12-08T09:33:33.154Z,8.85
2022-12-08T09:34:36.585Z,9.86
2022-12-08T09:35:39.792Z,11.12
2022-12-08T09:36:43.299Z,9.93
2022-12-08T09:37:46.491Z,8.94
2022-12-08T09:38:50.500Z,8.76
2022-12-08T09:39:53.582Z,11.24
2022-12-08T09:40:57.406Z,10.51
2022-12-08T09:42:06.287Z,9.82
2022-12-08T09:43:29.281Z,9.72
2022-12-08T09:44:51.336Z,9.64
2022-12-08T09:45:55.544Z,10.98
2022-12-08T09:47:00.090Z,11.53
2022-12-08T09:48:13.676Z,11.09
2022-12-08T09:49:20.538Z,12.49
2022-12-08T09:51:46.246Z,14.91
2022-12-08T09:53:07.939Z,14.16
2022-12-08T09:54:26.827Z,10.87
2022-12-08T09:55:42.465Z,10.82
2022-12-08T09:56:47.827Z,10.11
2022-12-08T09:58:00.847Z,11.09
2022-12-08T09:59:10.225Z,10.03
2022-12-08T10:00:14.646Z,11.06
2022-12-08T10:01:19.267Z,9.31
2022-12-08T10:02:25.910Z,9.28
2022-12-08T10:03:30.744Z,8.93
2022-12-08T10:04:36.999Z,8.89
2022-12-08T10:05:44.065Z,8.44
2022-12-08T10:06:54.006Z,7.84
2022-12-08T10:08:17.051Z,6.98
2022-12-08T10:09:29.655Z,6.52
2022-12-08T10:10:39.084Z,7.47
2022-12-08T10:12:14.498Z,7.87
2022-12-08T10:13:29.528Z,7.78
2022-12-08T10:14:45.491Z,7.02
2022-12-08T10:16:28.017Z,9.11
2022-12-08T10:17:29.945Z,8.42
2022-12-08T10:18:34.452Z,8.66
2022-12-08T10:19:41.186Z,8.94
2022-12-08T10:20:47.560Z,9.16
2022-12-08T10:21:51.089Z,8.59
2022-12-08T10:23:06.910Z,8.98
2022-12-08T10:24:23.015Z,10.89
2022-12-08T10:25:29.902Z,8.44
2022-12-08T10:26:33.088Z,9.27
2022-12-08T10:27:37.183Z,8.93
2022-12-08T10:28:44.793Z,8.93
2022-12-08T10:29:45.904Z,9.20
2022-12-08T10:30:49.108Z,9.29
2022-12-08T10:31:52.357Z,8.73
2022-12-08T10:32:55.711Z,8.49
2022-12-08T10:34:00.941Z,8.32
2022-12-08T10:35:11.503Z,10.18
2022-12-08T10:36:15.000Z,9.46
2022-12-08T10:37:18.106Z,8.59
2022-12-08T10:38:27.651Z,9.38
2022-12-08T10:39:34.475Z,8.23
2022-12-08T10:40:43.855Z,9.88
2022-12-08T10:41:42.980Z,9.98
2022-12-08T10:42:49.742Z,9.83
2022-12-08T10:43:59.723Z,9.08
2022-12-08T10:45:12.389Z,9.17
2022-12-08T10:46:19.125Z,8.69
2022-12-08T10:47:24.961Z,10.28
2022-12-08T10:48:32.880Z,10.10
2022-12-08T10:49:37.878Z,9.31
2022-12-08T10:50:58.198Z,9.09
2022-12-08T10:52:03.442Z,10.04
2022-12-08T10:53:18.887Z,7.74
2022-12-08T10:54:33.554Z,7.66
2022-12-08T10:55:50.755Z,8.43
2022-12-08T10:56:55.579Z,7.87
2022-12-08T10:57:58.820Z,8.11
2022-12-08T10:59:11.268Z,10.38
2022-12-08T11:01:37.716Z,9.08
2022-12-08T11:02:59.192Z,8.71
2022-12-08T11:04:06.060Z,8.72
2022-12-08T11:05:12.749Z,8.73
2022-12-08T11:06:19.390Z,8.69
2022-12-08T11:07:23.133Z,8.38
2022-12-08T11:08:28.932Z,8.47
2022-12-08T11:10:49.292Z,7.93
2022-12-08T11:11:55.879Z,8.11
2022-12-08T11:13:02.170Z,8.57
2022-12-08T11:14:07.973Z,8.36
2022-12-08T11:15:17.307Z,12.02
2022-12-08T11:16:22.480Z,10.04
2022-12-08T11:17:27.783Z,9.34
2022-12-08T11:18:34.418Z,8.29
2022-12-08T11:19:40.109Z,8.74
2022-12-08T11:20:43.304Z,8.32
2022-12-08T11:21:46.991Z,8.69
2022-12-08T11:22:55.126Z,8.63
2022-12-08T11:23:58.264Z,8.71
2022-12-08T11:26:33.765Z,9.52
2022-12-08T11:27:46.099Z,8.72
2022-12-08T11:28:49.237Z,8.56
2022-12-08T11:29:52.620Z,8.83
2022-12-08T11:30:59.496Z,8.56
2022-12-08T11:32:06.054Z,9.56
2022-12-08T11:33:27.391Z,9.56
2022-12-08T11:34:40.987Z,10.61
2022-12-08T11:35:47.177Z,10.93
2022-12-08T11:36:52.190Z,9.84
2022-12-08T11:38:13.479Z,10.76
2022-12-08T11:39:05.261Z,11.44
2022-12-08T11:40:18.538Z,10.68
2022-12-08T11:41:31.298Z,10.16
2022-12-08T11:42:37.982Z,10.32
2022-12-08T11:44:01.060Z,11.00
2022-12-08T11:45:07.982Z,10.18
2022-12-08T11:46:18.051Z,11.11
2022-12-08T11:47:27.819Z,10.80
2022-12-08T11:48:37.591Z,10.40
2022-12-08T11:49:42.412Z,10.47
2022-12-08T11:50:55.035Z,10.47
2022-12-08T11:52:05.163Z,10.87
2022-12-08T11:53:12.239Z,10.39
2022-12-08T11:54:27.983Z,10.66
2022-12-08T11:55:40.664Z,10.82
2022-12-08T11:56:59.557Z,10.08
2022-12-08T11:58:06.358Z,9.91
2022-12-08T11:59:43.441Z,10.67
2022-12-08T12:00:47.072Z,10.64
2022-12-08T12:01:50.777Z,10.24
2022-12-08T12:03:00.292Z,10.67
2022-12-08T12:07:26.366Z,10.83
2022-12-08T12:08:50.490Z,11.07
2022-12-08T12:10:17.841Z,11.09
2022-12-08T12:11:48.660Z,10.93
2022-12-08T12:13:22.707Z,10.47
2022-12-08T12:14:51.010Z,10.94
2022-12-08T12:16:18.350Z,11.06
2022-12-08T12:17:43.281Z,11.68
2022-12-08T12:19:07.597Z,11.72
2022-12-08T12:20:32.255Z,13.47
2022-12-08T12:21:41.824Z,13.41
2022-12-08T12:22:48.271Z,13.83
2022-12-08T12:23:58.073Z,14.34
2022-12-08T12:25:01.950Z,14.59
2022-12-08T12:26:08.655Z,13.99
2022-12-08T12:27:18.284Z,12.83
2022-12-08T12:28:24.799Z,12.57
2022-12-08T12:29:37.157Z,13.68
2022-12-08T12:30:56.197Z,14.66
2022-12-08T12:32:03.063Z,15.52
2022-12-08T12:33:08.077Z,15.64
2022-12-08T12:34:39.201Z,15.03
2022-12-08T12:36:58.169Z,15.09
2022-12-08T12:38:06.774Z,16.37
2022-12-08T12:39:13.580Z,15.38
2022-12-08T12:40:23.544Z,16.02
2022-12-08T12:41:38.726Z,14.86
2022-12-08T12:42:50.986Z,16.03
2022-12-08T12:44:09.418Z,14.25
2022-12-08T12:45:16.364Z,14.31
2022-12-08T12:46:26.040Z,13.79
2022-12-08T12:47:59.393Z,13.28
2022-12-08T12:49:42.730Z,12.12
2022-12-08T12:50:48.982Z,11.63
2022-12-08T12:51:55.223Z,11.91
2022-12-08T12:53:01.044Z,11.61
2022-12-08T12:54:25.719Z,10.63
2022-12-08T12:55:47.355Z,9.28
2022-12-08T12:56:53.844Z,10.55
2022-12-08T12:57:58.415Z,9.73
2022-12-08T12:59:05.103Z,10.49
2022-12-08T13:00:12.179Z,9.17
2022-12-08T13:01:25.113Z,9.47
2022-12-08T13:02:37.611Z,8.68
2022-12-08T13:03:53.016Z,9.46
2022-12-08T13:06:35.403Z,9.39
2022-12-08T13:08:55.683Z,9.79
2022-12-08T13:10:02.662Z,9.29
2022-12-08T13:11:09.165Z,9.60
2022-12-08T13:12:15.889Z,9.62
2022-12-08T13:13:19.037Z,9.51
2022-12-08T13:15:48.219Z,11.09
2022-12-08T13:16:55.133Z,10.28
2022-12-08T13:17:58.368Z,10.54
2022-12-08T13:19:07.936Z,10.08
2022-12-08T13:21:34.899Z,9.79
2022-12-08T13:22:56.116Z,9.46
2022-12-08T13:24:19.272Z,9.61
2022-12-08T13:25:44.130Z,10.24
2022-12-08T13:26:49.861Z,9.96
2022-12-08T13:27:54.349Z,10.53
2022-12-08T13:29:03.903Z,10.42
2022-12-08T13:31:56.640Z,10.04
2022-12-08T13:33:18.383Z,11.37
2022-12-08T13:34:37.298Z,11.72
2022-12-08T13:35:43.995Z,11.74
2022-12-08T13:37:11.922Z,13.22
2022-12-08T13:38:18.850Z,12.90
2022-12-08T13:40:45.765Z,13.84
2022-12-08T13:43:18.396Z,12.93
2022-12-08T13:48:51.201Z,13.76
2022-12-08T13:51:08.169Z,12.31
2022-12-08T13:57:10.647Z,12.81
2022-12-08T13:58:01.478Z,13.50
2022-12-08T13:59:29.891Z,12.12
2022-12-08T14:00:33.155Z,12.51
2022-12-08T14:01:43.117Z,11.75
2022-12-08T14:02:49.175Z,11.09
